Time;durP1;ratioP1;P1;durP2;ratioP2;P2;SDS_P1;SDS_P2;PMS_P1;PMS_P2;Temp;Humidity;BMP_temperature;BMP_pressure;BME280_temperature;BME280_humidity;BME280_pressure;Samples;Min_cycle;Max_cycle;Signal;HPM_P1;HPM_P2
2023/12/30 00:01:37;;;;;;;8.60;0.73;;;6.40;99.90;;;;;;5074136;28;20674;-73
2023/12/30 00:04:02;;;;;;;2.97;0.40;;;6.60;99.90;;;;;;5085243;28;20026;-73
2023/12/30 00:06:28;;;;;;;9.48;0.68;;;6.70;99.90;;;;;;5081103;28;20088;-73
2023/12/30 00:08:54;;;;;;;9.65;0.50;;;6.80;99.90;;;;;;5081268;28;20028;-74
2023/12/30 00:11:19;;;;;;;4.82;0.40;;;6.80;99.90;;;;;;5081245;28;20484;-73
2023/12/30 00:13:45;;;;;;;8.05;0.60;;;6.70;99.90;;;;;;5076687;28;20103;-74
2023/12/30 00:16:10;;;;;;;6.18;0.35;;;6.60;99.90;;;;;;5082932;28;20016;-74
2023/12/30 00:18:36;;;;;;;6.13;0.40;;;6.60;99.90;;;;;;5089037;28;19922;-73
2023/12/30 00:21:02;;;;;;;7.50;0.50;;;6.50;99.90;;;;;;5074049;28;20036;-74
2023/12/30 00:23:28;;;;;;;7.78;0.40;;;6.50;99.90;;;;;;5083188;28;20032;-73
2023/12/30 00:25:54;;;;;;;5.55;1.02;;;6.50;99.90;;;;;;5078602;28;20024;-73
2023/12/30 00:28:21;;;;;;;6.65;0.32;;;6.50;99.90;;;;;;5081983;28;20032;-73
2023/12/30 00:30:47;;;;;;;9.18;0.40;;;6.60;99.90;;;;;;5086936;28;20043;-73
2023/12/30 00:33:12;;;;;;;10.85;0.55;;;6.60;99.90;;;;;;5086416;28;20078;-73
2023/12/30 00:35:38;;;;;;;14.88;0.68;;;6.70;99.90;;;;;;5082340;28;20039;-73
2023/12/30 00:38:04;;;;;;;9.90;0.60;;;6.60;99.90;;;;;;5084412;28;20040;-73
2023/12/30 00:40:29;;;;;;;4.80;0.52;;;6.70;99.90;;;;;;5078775;28;20028;-73
2023/12/30 00:42:55;;;;;;;13.23;0.52;;;6.80;99.90;;;;;;5081449;28;20154;-74
2023/12/30 00:45:20;;;;;;;7.80;0.68;;;6.80;99.90;;;;;;5080635;28;20022;-73
2023/12/30 00:47:46;;;;;;;8.70;0.55;;;6.90;99.90;;;;;;5075040;28;20384;-74
2023/12/30 00:50:12;;;;;;;7.82;0.60;;;6.90;99.90;;;;;;5083318;28;20028;-73
2023/12/30 00:52:37;;;;;;;12.70;0.60;;;6.90;99.90;;;;;;5078568;28;20422;-74
2023/12/30 00:55:03;;;;;;;9.40;0.40;;;6.90;99.90;;;;;;5077262;28;20023;-74
2023/12/30 00:57:29;;;;;;;12.23;1.73;;;6.90;99.90;;;;;;5073094;28;20044;-74
2023/12/30 00:59:54;;;;;;;9.32;0.77;;;6.90;99.90;;;;;;5085113;28;20088;-74
2023/12/30 01:02:20;;;;;;;7.75;0.85;;;6.90;99.90;;;;;;5058259;28;20058;-74
2023/12/30 01:04:46;;;;;;;11.55;0.82;;;6.90;99.90;;;;;;5084880;28;20391;-74
2023/12/30 01:07:11;;;;;;;10.50;0.57;;;6.90;99.90;;;;;;5081442;28;20035;-74
2023/12/30 01:09:37;;;;;;;10.07;0.75;;;6.80;99.90;;;;;;5089052;28;20426;-74
2023/12/30 01:12:03;;;;;;;10.57;1.23;;;6.80;99.90;;;;;;5072096;28;20028;-74
2023/12/30 01:14:29;;;;;;;8.77;0.68;;;6.80;99.90;;;;;;5071346;28;20030;-74
2023/12/30 01:16:55;;;;;;;14.60;0.77;;;6.70;99.90;;;;;;5060549;28;20032;-74
2023/12/30 01:19:20;;;;;;;12.05;1.02;;;6.80;99.90;;;;;;5053325;28;20029;-74
2023/12/30 01:21:46;;;;;;;9.98;1.05;;;6.70;99.90;;;;;;5071590;28;20028;-73
2023/12/30 01:24:12;;;;;;;12.45;0.68;;;6.80;99.90;;;;;;5072530;28;20020;-73
2023/12/30 01:26:38;;;;;;;11.63;0.98;;;6.80;99.90;;;;;;5083104;28;20032;-74
2023/12/30 01:29:04;;;;;;;12.40;0.75;;;6.80;99.90;;;;;;5075273;28;20025;-74
2023/12/30 01:31:29;;;;;;;9.35;0.77;;;6.70;99.90;;;;;;5053939;28;20558;-74
2023/12/30 01:33:55;;;;;;;11.35;0.90;;;6.70;99.90;;;;;;5087330;28;20063;-74
2023/12/30 01:36:21;;;;;;;11.52;0.68;;;6.60;99.90;;;;;;5073593;28;20020;-73
2023/12/30 01:38:46;;;;;;;15.88;1.70;;;6.60;99.90;;;;;;5081762;28;20073;-74
2023/12/30 01:41:12;;;;;;;8.48;0.82;;;6.60;99.90;;;;;;5085770;28;20040;-75
2023/12/30 01:43:38;;;;;;;9.82;0.95;;;6.50;99.90;;;;;;5071268;28;20021;-74
2023/12/30 01:46:09;;;;;;;7.80;0.80;;;6.50;99.90;;;;;;5070538;28;20423;-74
2023/12/30 01:48:35;;;;;;;8.77;0.70;;;6.50;99.90;;;;;;5052486;28;20093;-74
2023/12/30 01:51:02;;;;;;;13.82;0.80;;;6.60;99.90;;;;;;5077603;28;20027;-74
2023/12/30 01:53:32;;;;;;;13.05;0.60;;;6.60;99.90;;;;;;5071930;28;20073;-74
2023/12/30 01:55:58;;;;;;;14.73;0.80;;;6.50;99.90;;;;;;5072773;28;20380;-74
2023/12/30 01:58:25;;;;;;;12.45;0.60;;;6.60;99.90;;;;;;5079022;28;20384;-74
2023/12/30 02:00:54;;;;;;;10.70;1.08;;;6.60;99.90;;;;;;5078276;28;20024;-74
2023/12/30 02:03:21;;;;;;;9.02;1.00;;;6.60;99.90;;;;;;5083451;28;20024;-74
2023/12/30 02:05:47;;;;;;;10.43;0.70;;;6.60;99.90;;;;;;5079038;28;20530;-74
2023/12/30 02:08:14;;;;;;;7.15;0.63;;;6.60;99.90;;;;;;5084195;28;20028;-75
2023/12/30 02:10:40;;;;;;;7.35;0.50;;;6.60;99.90;;;;;;5087695;28;20035;-74
2023/12/30 02:13:07;;;;;;;8.93;0.60;;;6.60;99.90;;;;;;5083516;28;20020;-74
2023/12/30 02:15:32;;;;;;;9.25;0.68;;;6.60;99.90;;;;;;5073867;28;20032;-74
2023/12/30 02:18:00;;;;;;;8.18;0.70;;;6.60;99.90;;;;;;5074608;28;20097;-74
2023/12/30 02:20:25;;;;;;;12.80;0.80;;;6.50;99.90;;;;;;5073566;28;20019;-74
2023/12/30 02:22:51;;;;;;;5.90;0.50;;;6.60;99.90;;;;;;5073335;28;20033;-74
2023/12/30 02:25:17;;;;;;;10.73;1.10;;;6.60;99.90;;;;;;5072395;28;20020;-74
2023/12/30 02:27:43;;;;;;;7.10;0.50;;;6.60;99.90;;;;;;5080062;28;20392;-74
2023/12/30 02:30:10;;;;;;;5.57;0.43;;;6.70;99.90;;;;;;5076811;28;20027;-74
2023/12/30 02:32:36;;;;;;;8.93;0.55;;;6.60;99.90;;;;;;5081395;28;20025;-74
2023/12/30 02:35:02;;;;;;;8.15;0.60;;;6.60;99.90;;;;;;5067925;28;20360;-74
2023/12/30 02:37:27;;;;;;;11.73;0.60;;;6.70;99.90;;;;;;5069898;28;20033;-74
2023/12/30 02:39:53;;;;;;;5.07;0.60;;;6.60;99.90;;;;;;5075981;28;20483;-74
2023/12/30 02:42:19;;;;;;;11.75;0.85;;;6.70;99.90;;;;;;5075892;28;20025;-74
2023/12/30 02:44:44;;;;;;;14.90;1.00;;;6.70;99.90;;;;;;5052527;28;20041;-74
2023/12/30 02:47:10;;;;;;;8.40;0.50;;;6.70;99.90;;;;;;5075274;28;20036;-74
2023/12/30 02:49:35;;;;;;;9.27;0.50;;;6.70;99.90;;;;;;5070879;28;20053;-74
2023/12/30 02:52:01;;;;;;;8.65;0.60;;;6.70;99.90;;;;;;5075601;28;20394;-74
2023/12/30 02:54:27;;;;;;;10.25;0.85;;;6.70;99.90;;;;;;5070574;28;20029;-74
2023/12/30 02:56:53;;;;;;;7.55;0.50;;;6.80;99.90;;;;;;5075365;28;20439;-74
2023/12/30 02:59:19;;;;;;;10.05;0.63;;;6.70;99.90;;;;;;5076022;28;20073;-74
2023/12/30 03:01:44;;;;;;;10.40;0.52;;;6.70;99.90;;;;;;5085446;28;20060;-74
2023/12/30 03:04:10;;;;;;;9.30;0.50;;;6.70;99.90;;;;;;5081958;28;20021;-74
2023/12/30 03:06:35;;;;;;;5.68;0.30;;;6.80;99.90;;;;;;5086780;28;20100;-74
2023/12/30 03:09:01;;;;;;;7.43;0.63;;;6.80;99.90;;;;;;5083156;28;20020;-74
2023/12/30 03:11:27;;;;;;;3.03;0.40;;;6.80;99.90;;;;;;5059006;28;20435;-74
2023/12/30 03:13:53;;;;;;;9.18;0.57;;;6.80;99.90;;;;;;5091490;28;20078;-74
2023/12/30 03:16:19;;;;;;;6.13;0.40;;;6.70;99.90;;;;;;5093503;28;20033;-74
2023/12/30 03:18:46;;;;;;;10.48;1.00;;;6.70;99.90;;;;;;5081360;28;20039;-74
2023/12/30 03:21:13;;;;;;;13.75;0.60;;;6.70;99.90;;;;;;5084114;28;20020;-74
2023/12/30 03:23:40;;;;;;;11.45;0.60;;;6.60;99.90;;;;;;5084468;28;20097;-74
2023/12/30 03:26:10;;;;;;;10.48;0.85;;;6.60;99.90;;;;;;5082773;28;20124;-74
2023/12/30 03:28:36;;;;;;;14.13;1.00;;;6.60;99.90;;;;;;5083550;28;20016;-74
2023/12/30 03:31:02;;;;;;;14.07;1.05;;;6.60;99.90;;;;;;5090017;28;20090;-74
2023/12/30 03:33:28;;;;;;;11.25;0.68;;;6.60;99.90;;;;;;5088569;28;20361;-74
2023/12/30 03:35:54;;;;;;;15.80;0.70;;;6.60;99.90;;;;;;5075530;28;20037;-74
2023/12/30 03:38:20;;;;;;;9.00;0.75;;;6.60;99.90;;;;;;5075042;28;20373;-75
2023/12/30 03:40:45;;;;;;;10.63;1.08;;;6.60;99.90;;;;;;5082132;28;20016;-74
2023/12/30 03:43:13;;;;;;;15.27;1.10;;;6.60;99.90;;;;;;5073270;28;20029;-74
2023/12/30 03:45:38;;;;;;;9.85;0.68;;;6.60;99.90;;;;;;5083411;28;20027;-74
2023/12/30 03:48:04;;;;;;;7.63;0.60;;;6.60;99.90;;;;;;5076251;28;20076;-74
2023/12/30 03:50:30;;;;;;;14.10;0.50;;;6.60;99.90;;;;;;5089814;28;20400;-74
2023/12/30 03:52:55;;;;;;;10.35;0.50;;;6.70;99.90;;;;;;5092392;28;20353;-74
2023/12/30 03:55:21;;;;;;;8.80;0.80;;;6.60;99.90;;;;;;5090824;28;20027;-74
2023/12/30 03:57:47;;;;;;;14.60;0.63;;;6.60;99.90;;;;;;5077584;28;20033;-74
2023/12/30 04:00:13;;;;;;;12.45;1.15;;;6.60;99.90;;;;;;5085078;28;20055;-74
2023/12/30 04:02:39;;;;;;;7.95;0.80;;;6.60;99.90;;;;;;5079351;28;20062;-74
2023/12/30 04:05:05;;;;;;;15.07;1.45;;;6.60;99.90;;;;;;5088222;28;20085;-74
2023/12/30 04:07:30;;;;;;;10.27;0.80;;;6.50;99.90;;;;;;5077702;28;20418;-74
2023/12/30 04:09:56;;;;;;;10.57;0.75;;;6.50;99.90;;;;;;5088315;28;20095;-74
2023/12/30 04:12:22;;;;;;;9.88;0.50;;;6.50;99.90;;;;;;5085542;28;20031;-74
2023/12/30 04:14:47;;;;;;;14.80;0.75;;;6.50;99.90;;;;;;5090919;28;20024;-74
2023/12/30 04:17:13;;;;;;;11.73;1.13;;;6.50;99.90;;;;;;5079304;28;20090;-74
2023/12/30 04:19:39;;;;;;;10.30;0.60;;;6.40;99.90;;;;;;5076791;28;20533;-74
2023/12/30 04:22:05;;;;;;;7.40;0.60;;;6.40;99.90;;;;;;5074281;28;20060;-74
2023/12/30 04:24:30;;;;;;;6.05;0.82;;;6.40;99.90;;;;;;5082501;28;20016;-74
2023/12/30 04:26:56;;;;;;;10.48;1.20;;;6.40;99.90;;;;;;5084947;28;20495;-74
2023/12/30 04:29:22;;;;;;;9.75;0.80;;;6.40;99.90;;;;;;5063181;28;20028;-74
2023/12/30 04:31:48;;;;;;;14.38;0.93;;;6.40;99.90;;;;;;5081901;28;20428;-74
2023/12/30 04:34:14;;;;;;;7.72;0.52;;;6.40;99.90;;;;;;5079747;28;20421;-74
2023/12/30 04:36:39;;;;;;;15.27;0.88;;;6.40;99.90;;;;;;5092846;28;20103;-74
2023/12/30 04:39:05;;;;;;;12.75;0.98;;;6.40;99.90;;;;;;5082742;28;20082;-74
2023/12/30 04:41:30;;;;;;;12.45;1.00;;;6.40;99.90;;;;;;5076803;28;20048;-74
2023/12/30 04:43:56;;;;;;;12.40;1.05;;;6.40;99.90;;;;;;5060741;28;20121;-74
2023/12/30 04:46:21;;;;;;;7.63;0.77;;;6.40;99.90;;;;;;5060557;28;20488;-74
2023/12/30 04:48:52;;;;;;;12.43;1.60;;;6.40;99.90;;;;;;5062452;28;20049;-74
2023/12/30 04:51:18;;;;;;;4.90;0.93;;;6.40;99.90;;;;;;5080932;28;20111;-74
2023/12/30 04:53:43;;;;;;;16.38;1.67;;;6.40;99.90;;;;;;5088130;28;20155;-74
2023/12/30 04:56:15;;;;;;;9.40;0.80;;;6.40;99.90;;;;;;5071229;28;20158;-74
2023/12/30 04:58:40;;;;;;;10.25;0.90;;;6.40;99.90;;;;;;5075144;28;20040;-74
2023/12/30 05:01:06;;;;;;;9.73;1.05;;;6.40;99.90;;;;;;5081872;28;20020;-74
2023/12/30 05:03:32;;;;;;;15.95;1.58;;;6.40;99.90;;;;;;5077474;28;20058;-74
2023/12/30 05:05:57;;;;;;;10.23;0.82;;;6.40;99.90;;;;;;5055961;28;20029;-74
2023/12/30 05:08:23;;;;;;;10.38;1.52;;;6.30;99.90;;;;;;5084926;28;20024;-75
2023/12/30 05:10:48;;;;;;;12.15;1.13;;;6.30;99.90;;;;;;5076416;28;20032;-75
2023/12/30 05:13:14;;;;;;;16.90;0.95;;;6.30;99.90;;;;;;5069506;28;20032;-74
2023/12/30 05:15:39;;;;;;;15.23;1.90;;;6.30;99.90;;;;;;5080250;28;20036;-74
2023/12/30 05:18:05;;;;;;;12.85;1.20;;;6.30;99.90;;;;;;5082970;28;20062;-74
2023/12/30 05:20:31;;;;;;;13.05;1.50;;;6.20;99.90;;;;;;5075029;28;20028;-74
2023/12/30 05:23:00;;;;;;;16.17;1.27;;;6.20;99.90;;;;;;5073869;28;20028;-74
2023/12/30 05:25:26;;;;;;;21.55;1.70;;;6.30;99.90;;;;;;5079815;28;20115;-74
2023/12/30 05:27:51;;;;;;;14.57;1.80;;;6.20;99.90;;;;;;5075316;28;20103;-74
2023/12/30 05:30:17;;;;;;;13.80;1.60;;;6.20;99.90;;;;;;5075796;28;20025;-75
2023/12/30 05:32:42;;;;;;;16.90;1.65;;;6.20;99.90;;;;;;5080702;28;20117;-74
2023/12/30 05:35:08;;;;;;;12.02;1.00;;;6.30;99.90;;;;;;5074232;28;20039;-74
2023/12/30 05:37:33;;;;;;;16.55;1.77;;;6.20;99.90;;;;;;5054715;28;20036;-74
2023/12/30 05:39:59;;;;;;;10.95;1.10;;;6.20;99.90;;;;;;5078178;28;20027;-74
2023/12/30 05:42:24;;;;;;;12.55;1.48;;;6.20;99.90;;;;;;5071937;28;20041;-74
2023/12/30 05:44:50;;;;;;;12.35;1.58;;;6.20;99.90;;;;;;5079245;28;20028;-74
2023/12/30 05:47:16;;;;;;;11.93;1.70;;;6.20;99.90;;;;;;5078903;28;20028;-74
2023/12/30 05:49:41;;;;;;;12.52;1.58;;;6.30;99.90;;;;;;5071254;28;20029;-74
2023/12/30 05:52:08;;;;;;;14.50;1.92;;;6.30;99.90;;;;;;5085255;28;20032;-74
2023/12/30 05:54:34;;;;;;;16.55;1.55;;;6.30;99.90;;;;;;5078734;28;20028;-74
2023/12/30 05:57:02;;;;;;;11.93;1.60;;;6.40;99.90;;;;;;5084399;28;20040;-74
2023/12/30 05:59:28;;;;;;;10.25;1.75;;;6.30;99.90;;;;;;5082419;28;20098;-74
2023/12/30 06:01:53;;;;;;;10.55;1.80;;;6.40;99.90;;;;;;5072497;28;20021;-74
2023/12/30 06:04:19;;;;;;;10.63;1.25;;;6.30;99.90;;;;;;5086477;28;20505;-75
2023/12/30 06:06:45;;;;;;;15.02;1.42;;;6.30;99.90;;;;;;5079975;28;20020;-74
2023/12/30 06:09:11;;;;;;;14.77;1.38;;;6.30;99.90;;;;;;5086402;28;20094;-74
2023/12/30 06:11:37;;;;;;;14.40;1.73;;;6.20;99.90;;;;;;5075069;28;20407;-74
2023/12/30 06:14:03;;;;;;;15.27;1.83;;;6.30;99.90;;;;;;5086289;28;20081;-74
2023/12/30 06:16:29;;;;;;;12.27;1.27;;;6.20;99.90;;;;;;5088140;28;20020;-74
2023/12/30 06:18:54;;;;;;;19.23;1.77;;;6.20;99.90;;;;;;5075313;28;20495;-74
2023/12/30 06:21:20;;;;;;;11.65;1.50;;;6.10;99.90;;;;;;5079114;28;20027;-74
2023/12/30 06:23:46;;;;;;;14.10;2.13;;;6.10;99.90;;;;;;5085664;28;20090;-75
2023/12/30 06:26:12;;;;;;;11.30;1.13;;;6.10;99.90;;;;;;5079863;28;20099;-75
2023/12/30 06:28:38;;;;;;;16.25;1.70;;;6.00;99.90;;;;;;5077297;28;20115;-75
2023/12/30 06:31:03;;;;;;;13.40;1.42;;;6.00;99.90;;;;;;5077630;28;20031;-75
2023/12/30 06:33:29;;;;;;;13.35;1.45;;;6.00;99.90;;;;;;5078425;28;20036;-75
2023/12/30 06:35:54;;;;;;;14.55;1.35;;;6.00;99.90;;;;;;5059143;28;20024;-75
2023/12/30 06:38:20;;;;;;;17.25;1.15;;;6.00;99.90;;;;;;5073431;28;20063;-75
2023/12/30 06:40:46;;;;;;;11.52;1.10;;;6.00;99.90;;;;;;5071427;28;20368;-75
2023/12/30 06:43:12;;;;;;;16.73;1.58;;;6.00;99.90;;;;;;5085139;28;20024;-75
2023/12/30 06:45:37;;;;;;;14.68;1.23;;;5.90;99.90;;;;;;5081433;28;20025;-74
2023/12/30 06:48:04;;;;;;;21.50;1.55;;;6.00;99.90;;;;;;5075499;28;20036;-74
2023/12/30 06:50:29;;;;;;;9.95;1.10;;;6.00;99.90;;;;;;5075807;28;20032;-74
2023/12/30 06:52:56;;;;;;;15.45;1.25;;;6.00;99.90;;;;;;5078090;28;20108;-73
2023/12/30 06:55:22;;;;;;;14.60;2.30;;;6.00;99.90;;;;;;5075880;28;20032;-74
2023/12/30 06:57:48;;;;;;;19.42;1.40;;;6.00;99.90;;;;;;5075338;28;20447;-74
2023/12/30 07:00:14;;;;;;;13.93;1.95;;;6.00;99.90;;;;;;5076442;28;20033;-74
2023/12/30 07:02:41;;;;;;;15.73;1.80;;;6.00;99.90;;;;;;5082092;28;20515;-74
2023/12/30 07:05:08;;;;;;;20.95;2.42;;;6.00;99.90;;;;;;5080365;28;20024;-74
2023/12/30 07:07:34;;;;;;;18.73;1.50;;;6.00;99.90;;;;;;5065443;28;20063;-74
2023/12/30 07:09:59;;;;;;;14.52;1.92;;;6.00;99.90;;;;;;5079151;28;20483;-74
2023/12/30 07:12:25;;;;;;;23.45;2.95;;;6.10;99.90;;;;;;5076871;28;20036;-74
2023/12/30 07:14:50;;;;;;;14.20;1.00;;;6.10;99.90;;;;;;5078348;28;20087;-75
2023/12/30 07:17:16;;;;;;;14.23;2.03;;;6.10;99.90;;;;;;5073451;28;20038;-74
2023/12/30 07:19:42;;;;;;;14.98;1.40;;;6.10;99.90;;;;;;5074855;28;20031;-73
2023/12/30 07:22:08;;;;;;;10.25;1.10;;;6.10;99.90;;;;;;5074942;28;20066;-74
2023/12/30 07:24:33;;;;;;;16.45;2.70;;;6.20;99.90;;;;;;5074218;28;20437;-73
2023/12/30 07:26:59;;;;;;;16.48;1.52;;;6.20;99.90;;;;;;5085336;28;20032;-73
2023/12/30 07:29:24;;;;;;;14.43;1.65;;;6.20;99.90;;;;;;5094067;28;20035;-74
2023/12/30 07:31:50;;;;;;;9.88;1.13;;;6.20;99.90;;;;;;5064825;28;20024;-73
2023/12/30 07:34:17;;;;;;;15.07;1.40;;;6.20;99.90;;;;;;5078933;28;20047;-74
2023/12/30 07:36:43;;;;;;;13.75;1.55;;;6.20;99.90;;;;;;5070833;28;20476;-74
2023/12/30 07:39:09;;;;;;;20.00;1.83;;;6.20;99.90;;;;;;5083082;28;20038;-74
2023/12/30 07:41:34;;;;;;;21.88;2.63;;;6.20;99.90;;;;;;5080035;28;20120;-73
2023/12/30 07:44:00;;;;;;;16.40;1.73;;;6.20;99.90;;;;;;5082198;28;20031;-74
2023/12/30 07:46:26;;;;;;;13.88;1.25;;;6.20;99.90;;;;;;5091970;28;20029;-74
2023/12/30 07:48:52;;;;;;;18.63;1.73;;;6.20;99.90;;;;;;5086911;28;20159;-74
2023/12/30 07:51:18;;;;;;;22.70;2.10;;;6.20;99.90;;;;;;5080561;28;20059;-74
2023/12/30 07:53:43;;;;;;;15.25;1.50;;;6.20;99.90;;;;;;5075369;28;20024;-74
2023/12/30 07:56:09;;;;;;;20.17;1.25;;;6.30;99.90;;;;;;5063690;28;20115;-73
2023/12/30 07:58:35;;;;;;;14.65;1.60;;;6.30;99.90;;;;;;5082256;28;20119;-74
2023/12/30 08:01:01;;;;;;;18.88;1.50;;;6.20;99.90;;;;;;5077472;28;20020;-74
2023/12/30 08:03:27;;;;;;;10.05;1.08;;;6.30;99.90;;;;;;5084491;28;20089;-74
2023/12/30 08:05:52;;;;;;;24.73;1.70;;;6.30;99.90;;;;;;5086512;28;20427;-74
2023/12/30 08:08:19;;;;;;;16.63;1.77;;;6.40;99.90;;;;;;5081779;28;20067;-74
2023/12/30 08:10:44;;;;;;;18.20;1.90;;;6.40;99.90;;;;;;5072916;28;20119;-74
2023/12/30 08:13:10;;;;;;;13.50;1.20;;;6.40;99.90;;;;;;5073231;28;20104;-74
2023/12/30 08:15:36;;;;;;;10.90;1.38;;;6.50;99.90;;;;;;5081026;28;20081;-74
2023/12/30 08:18:02;;;;;;;19.83;2.47;;;6.50;99.90;;;;;;5087918;28;20086;-74
2023/12/30 08:20:27;;;;;;;15.60;1.15;;;6.50;99.90;;;;;;5078194;28;20085;-74
2023/12/30 08:22:54;;;;;;;9.45;1.20;;;6.50;99.90;;;;;;5081138;28;20119;-74
2023/12/30 08:25:20;;;;;;;14.60;1.23;;;6.50;99.90;;;;;;5071948;28;20107;-74
2023/12/30 08:27:45;;;;;;;15.45;1.48;;;6.60;99.90;;;;;;5076140;28;20392;-74
2023/12/30 08:30:11;;;;;;;12.00;1.00;;;6.50;99.90;;;;;;5060049;28;20024;-74
2023/12/30 08:32:37;;;;;;;15.45;1.30;;;6.60;99.90;;;;;;5074344;28;20036;-74
2023/12/30 08:35:07;;;;;;;18.85;1.40;;;6.60;99.90;;;;;;5075583;28;20086;-74
2023/12/30 08:37:33;;;;;;;13.05;1.25;;;6.60;99.90;;;;;;5075164;28;20798;-74
2023/12/30 08:39:59;;;;;;;14.43;1.42;;;6.70;99.90;;;;;;5083969;28;20042;-74
2023/12/30 08:42:25;;;;;;;12.88;1.00;;;6.70;99.90;;;;;;5074412;28;20559;-74
2023/12/30 08:44:50;;;;;;;11.60;1.63;;;6.70;99.90;;;;;;5059208;28;20028;-74
2023/12/30 08:47:16;;;;;;;17.33;1.45;;;6.70;99.90;;;;;;5089868;28;20028;-73
2023/12/30 08:49:42;;;;;;;18.50;1.77;;;6.60;99.90;;;;;;5092247;28;20041;-73
2023/12/30 08:52:08;;;;;;;12.68;0.90;;;6.70;99.90;;;;;;5088705;28;20035;-74
2023/12/30 08:54:37;;;;;;;9.00;1.23;;;6.70;99.90;;;;;;5073910;28;20032;-74
2023/12/30 08:57:03;;;;;;;15.20;1.13;;;6.70;99.90;;;;;;5075421;28;20029;-74
2023/12/30 08:59:29;;;;;;;11.43;1.00;;;6.70;99.90;;;;;;5078782;28;20035;-74
2023/12/30 09:01:55;;;;;;;14.65;1.30;;;6.70;99.90;;;;;;5078421;28;20387;-74
2023/12/30 09:04:21;;;;;;;15.02;0.88;;;6.80;99.90;;;;;;5055690;28;20092;-74
2023/12/30 09:06:46;;;;;;;11.20;1.00;;;6.80;99.90;;;;;;5069612;28;20024;-74
2023/12/30 09:09:12;;;;;;;16.52;2.20;;;6.80;99.90;;;;;;5078841;28;20111;-74
2023/12/30 09:11:38;;;;;;;14.80;0.90;;;6.80;99.90;;;;;;5082706;28;20071;-74
2023/12/30 09:14:05;;;;;;;11.30;0.80;;;6.80;99.90;;;;;;5087259;28;20048;-74
2023/12/30 09:16:34;;;;;;;10.25;0.90;;;6.90;99.90;;;;;;5077851;28;20020;-74
2023/12/30 09:19:00;;;;;;;15.40;1.58;;;6.90;99.90;;;;;;5057072;28;20106;-74
2023/12/30 09:21:26;;;;;;;10.77;0.85;;;6.90;99.90;;;;;;5072344;28;20024;-75
2023/12/30 09:23:52;;;;;;;14.68;1.00;;;6.90;99.90;;;;;;5071090;28;20377;-75
2023/12/30 09:26:17;;;;;;;5.30;1.20;;;7.00;99.90;;;;;;5052523;28;20472;-74
2023/12/30 09:28:43;;;;;;;12.27;0.70;;;7.10;99.90;;;;;;5053345;28;20025;-74
2023/12/30 09:31:09;;;;;;;17.20;1.15;;;7.10;99.90;;;;;;5071501;28;20032;-75
2023/12/30 09:33:35;;;;;;;15.60;0.95;;;7.20;99.90;;;;;;5061713;28;20024;-74
2023/12/30 09:36:01;;;;;;;15.30;1.85;;;7.30;99.90;;;;;;5082485;28;20483;-74
2023/12/30 09:38:27;;;;;;;12.38;0.90;;;7.30;99.90;;;;;;5088242;28;20115;-74
2023/12/30 09:40:54;;;;;;;17.10;1.33;;;7.40;99.90;;;;;;5078070;28;20099;-74
2023/12/30 09:43:25;;;;;;;14.38;1.48;;;7.50;99.90;;;;;;5081042;28;20031;-73
2023/12/30 09:45:54;;;;;;;17.52;0.77;;;7.50;99.90;;;;;;5077022;28;20495;-74
2023/12/30 09:48:20;;;;;;;15.85;1.02;;;7.60;99.90;;;;;;5089702;28;20040;-74
2023/12/30 09:50:50;;;;;;;13.45;0.98;;;7.60;99.90;;;;;;5065492;28;20460;-74
2023/12/30 09:53:16;;;;;;;13.00;1.17;;;7.70;99.90;;;;;;5075378;28;20029;-74
2023/12/30 09:55:46;;;;;;;12.68;0.93;;;7.70;99.90;;;;;;5074540;28;20020;-74
2023/12/30 09:58:13;;;;;;;16.13;1.85;;;7.80;99.90;;;;;;5083848;28;20546;-74
2023/12/30 10:00:42;;;;;;;11.10;0.90;;;7.80;99.90;;;;;;5073094;28;20128;-74
2023/12/30 10:03:09;;;;;;;16.95;2.60;;;7.90;99.90;;;;;;5086846;28;20027;-74
2023/12/30 10:05:35;;;;;;;16.95;1.65;;;7.90;99.90;;;;;;5087977;28;20416;-73
2023/12/30 10:08:03;;;;;;;14.27;1.48;;;7.90;99.90;;;;;;5076711;28;20031;-74
2023/12/30 10:10:51;;;;;;;14.63;1.13;;;8.00;99.90;;;;;;5080967;28;20379;-74
2023/12/30 10:13:21;;;;;;;14.48;0.98;;;8.00;99.90;;;;;;5072610;28;20499;-75
2023/12/30 10:15:48;;;;;;;18.13;1.83;;;8.00;99.90;;;;;;5072894;28;20039;-74
2023/12/30 10:18:15;;;;;;;17.98;1.75;;;8.10;99.90;;;;;;5067907;28;20170;-75
2023/12/30 10:20:43;;;;;;;18.73;2.20;;;8.10;99.90;;;;;;5058844;28;20498;-74
2023/12/30 10:23:09;;;;;;;12.88;1.48;;;8.20;99.90;;;;;;5076525;28;20031;-74
2023/12/30 10:25:35;;;;;;;11.10;1.23;;;8.20;99.90;;;;;;5075072;28;20029;-75
2023/12/30 10:28:01;;;;;;;13.40;1.70;;;8.30;99.90;;;;;;5076852;28;20035;-74
2023/12/30 10:30:30;;;;;;;19.55;1.75;;;8.30;99.90;;;;;;5085641;28;20023;-75
2023/12/30 10:33:09;;;;;;;18.08;1.73;;;8.30;99.90;;;;;;5075368;28;20111;-75
2023/12/30 10:35:37;;;;;;;14.02;1.17;;;8.40;99.90;;;;;;5075230;28;20070;-74
2023/12/30 10:38:04;;;;;;;12.75;1.45;;;8.40;99.90;;;;;;5080727;28;20037;-74
2023/12/30 10:40:30;;;;;;;16.08;2.03;;;8.50;99.90;;;;;;5079107;28;20028;-74
2023/12/30 10:42:57;;;;;;;19.65;1.77;;;8.40;99.90;;;;;;5065925;28;20028;-75
2023/12/30 10:45:23;;;;;;;18.00;1.90;;;8.50;99.90;;;;;;5081629;28;20020;-75
2023/12/30 10:47:50;;;;;;;18.25;1.70;;;8.50;99.90;;;;;;5071215;28;20036;-74
2023/12/30 10:50:15;;;;;;;21.30;2.53;;;8.50;99.90;;;;;;5067657;28;20071;-74
2023/12/30 10:53:03;;;;;;;16.05;2.80;;;8.50;99.90;;;;;;5068853;28;20028;-74
2023/12/30 10:55:33;;;;;;;18.35;2.40;;;8.60;99.90;;;;;;5075803;28;20472;-74
2023/12/30 10:58:06;;;;;;;22.27;2.67;;;8.60;99.90;;;;;;5080936;28;20476;-77
2023/12/30 11:00:35;;;;;;;12.82;2.65;;;8.60;99.90;;;;;;5074445;28;20027;-75
2023/12/30 11:03:03;;;;;;;10.68;1.90;;;8.60;99.90;;;;;;5069139;28;20020;-74
2023/12/30 11:05:40;;;;;;;13.48;2.47;;;8.60;99.90;;;;;;5073857;28;20367;-74
2023/12/30 11:10:38;;;;;;;25.13;3.17;;;8.70;99.90;;;;;;5043416;23;20046;-75
2023/12/30 11:13:06;;;;;;;22.63;2.80;;;8.70;99.90;;;;;;5033496;28;20025;-75
2023/12/30 11:15:31;;;;;;;16.00;2.95;;;8.70;99.90;;;;;;5023242;28;20477;-75
2023/12/30 11:17:58;;;;;;;21.60;2.90;;;8.80;99.90;;;;;;5018062;28;20079;-75
2023/12/30 11:20:32;;;;;;;21.67;3.13;;;8.80;99.90;;;;;;5033478;28;20381;-75
2023/12/30 17:21:30;;;;;;;3.28;0.60;;;9.80;99.90;;;;;;5031701;23;20120;-87
2023/12/30 17:23:56;;;;;;;4.85;0.50;;;9.80;99.90;;;;;;5002608;28;20160;-88
2023/12/30 17:26:22;;;;;;;4.10;0.50;;;9.80;99.90;;;;;;5013772;28;20062;-88
2023/12/30 17:28:48;;;;;;;7.38;0.60;;;9.80;99.90;;;;;;5014449;28;20038;-88
2023/12/30 17:31:13;;;;;;;6.03;0.40;;;9.80;99.90;;;;;;5016467;28;20021;-88
2023/12/30 17:33:39;;;;;;;1.80;0.40;;;9.80;99.90;;;;;;5018649;28;20029;-88
2023/12/30 17:36:05;;;;;;;6.32;0.70;;;9.80;99.90;;;;;;5010225;28;20026;-88
2023/12/30 17:38:31;;;;;;;8.48;0.70;;;9.70;99.90;;;;;;5014237;28;20034;-87
2023/12/30 17:40:56;;;;;;;7.10;0.70;;;9.70;99.90;;;;;;5009180;28;20053;-89
2023/12/30 17:43:22;;;;;;;11.68;0.93;;;9.70;99.90;;;;;;5018080;28;20029;-88
2023/12/30 17:45:48;;;;;;;2.22;0.35;;;9.70;99.90;;;;;;5018424;28;20025;-88
2023/12/30 17:48:14;;;;;;;8.57;0.50;;;9.60;99.90;;;;;;5015227;28;20445;-89
2023/12/30 17:50:42;;;;;;;5.65;1.05;;;9.60;99.90;;;;;;5010867;28;20116;-89
2023/12/30 17:53:10;;;;;;;2.20;0.50;;;9.60;99.90;;;;;;5016321;28;20060;-89
2023/12/30 17:55:36;;;;;;;6.72;0.80;;;9.60;99.90;;;;;;5014324;28;20696;-88
2023/12/30 17:58:01;;;;;;;7.60;0.50;;;9.70;99.90;;;;;;5011913;28;20041;-88
2023/12/30 18:00:27;;;;;;;6.45;0.50;;;9.70;99.90;;;;;;5013711;28;20018;-88
2023/12/30 18:02:53;;;;;;;3.45;0.38;;;9.70;99.90;;;;;;5011375;28;20456;-91
2023/12/30 18:05:18;;;;;;;10.02;0.60;;;9.60;99.90;;;;;;5016253;28;20033;-90
2023/12/30 18:07:44;;;;;;;3.65;0.35;;;9.60;99.90;;;;;;5015277;28;20026;-90
2023/12/30 18:10:10;;;;;;;5.50;0.50;;;9.60;99.90;;;;;;5032348;28;20432;-87
2023/12/30 18:12:36;;;;;;;8.15;0.52;;;9.60;99.90;;;;;;5011171;28;20123;-89
2023/12/30 18:15:03;;;;;;;4.75;0.40;;;9.70;99.90;;;;;;5016056;28;20079;-90
2023/12/30 18:17:30;;;;;;;3.78;1.00;;;9.70;99.90;;;;;;5015854;28;20048;-90
2023/12/30 18:19:56;;;;;;;2.75;0.50;;;9.70;99.90;;;;;;5006850;28;20029;-89
2023/12/30 18:22:21;;;;;;;3.08;0.40;;;9.70;99.90;;;;;;5020766;28;20128;-89
2023/12/30 18:24:47;;;;;;;3.05;0.50;;;9.70;99.90;;;;;;5035659;28;20021;-88
2023/12/30 18:27:13;;;;;;;8.25;0.68;;;9.70;99.90;;;;;;5037622;28;20096;-89
2023/12/30 18:29:38;;;;;;;7.70;0.68;;;9.70;99.90;;;;;;5033772;28;20029;-89
2023/12/30 18:32:06;;;;;;;4.53;0.50;;;9.70;99.90;;;;;;5032383;28;20033;-89
2023/12/30 18:34:33;;;;;;;6.63;0.65;;;9.60;99.90;;;;;;5040819;28;20053;-90
2023/12/30 18:36:59;;;;;;;3.92;0.95;;;9.60;99.90;;;;;;5041495;28;20142;-91
2023/12/30 18:39:25;;;;;;;5.35;0.50;;;9.60;99.90;;;;;;5041208;28;20025;-89
2023/12/30 18:41:50;;;;;;;5.68;0.60;;;9.60;99.90;;;;;;5039626;28;20021;-88
2023/12/30 18:44:16;;;;;;;3.70;0.68;;;9.60;99.90;;;;;;5040988;28;20029;-89
2023/12/30 18:46:42;;;;;;;4.15;0.60;;;9.50;99.90;;;;;;5039871;28;20032;-88